createdAt,value
2022-12-23T00:03:33.501Z,10.40
2022-12-23T00:08:35.823Z,10.40
2022-12-23T00:13:39.638Z,10.40
2022-12-23T00:18:42.796Z,10.50
2022-12-23T00:23:46.754Z,10.50
2022-12-23T00:28:50.850Z,10.50
2022-12-23T00:33:53.386Z,10.50
2022-12-23T00:38:56.583Z,10.50
2022-12-23T00:44:00.365Z,10.40
2022-12-23T00:49:02.619Z,10.40
2022-12-23T00:54:05.639Z,10.50
2022-12-23T00:59:09.175Z,10.50
2022-12-23T01:04:12.886Z,10.50
2022-12-23T01:09:15.041Z,10.50
2022-12-23T01:14:18.667Z,10.50
2022-12-23T01:19:20.953Z,10.50
2022-12-23T01:24:23.585Z,10.50
2022-12-23T01:29:27.195Z,10.50
2022-12-23T01:34:36.082Z,10.40
2022-12-23T01:39:39.039Z,10.40
2022-12-23T01:44:58.231Z,10.50
2022-12-23T01:50:05.015Z,10.40
2022-12-23T01:55:09.006Z,10.40
2022-12-23T02:00:13.618Z,10.40
2022-12-23T02:05:16.835Z,10.40
2022-12-23T02:10:19.735Z,10.40
2022-12-23T02:15:37.183Z,10.40
2022-12-23T02:21:20.571Z,10.40
2022-12-23T02:26:56.869Z,10.50
2022-12-23T02:32:05.677Z,10.50
2022-12-23T02:37:15.404Z,10.50
2022-12-23T02:42:20.670Z,10.40
2022-12-23T02:47:28.203Z,10.40
2022-12-23T02:52:34.757Z,10.40
2022-12-23T02:57:41.366Z,10.40
2022-12-23T03:02:45.560Z,10.40
2022-12-23T03:07:48.180Z,10.40
2022-12-23T03:13:01.916Z,10.40
2022-12-23T03:18:12.049Z,10.40
2022-12-23T03:23:23.737Z,10.40
2022-12-23T03:28:33.491Z,10.40
2022-12-23T03:33:41.670Z,10.40
2022-12-23T03:38:45.491Z,10.40
2022-12-23T03:43:52.581Z,10.40
2022-12-23T03:48:59.606Z,10.40
2022-12-23T03:54:07.594Z,10.40
2022-12-23T03:59:15.090Z,10.40
2022-12-23T04:04:24.899Z,10.40
2022-12-23T04:09:28.918Z,10.40
2022-12-23T04:14:32.637Z,10.40
2022-12-23T04:19:36.217Z,10.40
2022-12-23T04:24:38.912Z,10.40
2022-12-23T04:29:41.253Z,10.40
2022-12-23T04:34:44.848Z,10.30
2022-12-23T04:39:46.989Z,10.30
2022-12-23T04:44:49.143Z,10.30
2022-12-23T04:49:52.661Z,10.30
2022-12-23T04:54:54.805Z,10.20
2022-12-23T04:59:57.019Z,10.20
2022-12-23T05:05:00.538Z,10.20
2022-12-23T05:10:02.805Z,10.20
2022-12-23T05:15:06.105Z,10.20
2022-12-23T05:20:10.896Z,10.10
2022-12-23T05:25:12.968Z,10.00
2022-12-23T05:30:15.265Z,10.00
2022-12-23T05:35:18.830Z,10.00
2022-12-23T05:40:24.941Z,10.00
2022-12-23T05:45:34.735Z,10.00
2022-12-23T05:50:39.060Z,10.00
2022-12-23T05:55:41.222Z,10.00
2022-12-23T06:00:43.484Z,10.00
2022-12-23T06:05:50.377Z,10.00
2022-12-23T06:10:52.529Z,10.00
2022-12-23T06:15:54.700Z,10.00
2022-12-23T06:20:58.212Z,10.00
2022-12-23T06:26:01.176Z,10.00
2022-12-23T06:31:03.363Z,9.90
2022-12-23T06:36:08.339Z,9.90
2022-12-23T06:41:10.480Z,9.80
2022-12-23T06:46:14.124Z,9.70
2022-12-23T06:51:17.861Z,9.70
2022-12-23T06:56:20.203Z,9.60
2022-12-23T07:01:22.445Z,9.60
2022-12-23T07:06:26.029Z,9.60
2022-12-23T07:11:28.140Z,9.70
2022-12-23T07:16:30.317Z,9.60
2022-12-23T07:21:33.819Z,9.60
2022-12-23T07:26:35.992Z,9.60
2022-12-23T07:31:41.160Z,9.50
2022-12-23T07:36:45.249Z,9.50
2022-12-23T07:41:47.380Z,9.60
2022-12-23T07:46:49.664Z,9.50
2022-12-23T07:51:53.264Z,9.50
2022-12-23T07:56:55.481Z,9.40
2022-12-23T08:01:57.843Z,9.40
2022-12-23T08:07:02.996Z,9.40
2022-12-23T08:12:05.537Z,9.40
2022-12-23T08:17:07.973Z,9.40
2022-12-23T08:22:12.254Z,9.40
2022-12-23T08:27:15.156Z,9.50
2022-12-23T08:32:17.761Z,9.60
2022-12-23T08:37:21.718Z,9.70
2022-12-23T08:42:24.552Z,9.80
2022-12-23T08:47:27.244Z,9.90
2022-12-23T08:52:31.446Z,10.00
2022-12-23T08:57:35.132Z,10.00
2022-12-23T09:02:37.927Z,10.10
2022-12-23T09:07:44.057Z,10.30
2022-12-23T09:12:46.764Z,10.80
2022-12-23T09:17:49.441Z,11.30
2022-12-23T09:22:55.502Z,11.70
2022-12-23T09:27:58.354Z,11.90
2022-12-23T09:33:01.077Z,11.90
2022-12-23T09:38:08.075Z,11.90
2022-12-23T09:43:22.644Z,11.80
2022-12-23T09:48:29.729Z,11.60
2022-12-23T09:53:45.963Z,11.50
2022-12-23T09:58:55.464Z,11.50
2022-12-23T10:04:37.211Z,11.40
2022-12-23T10:09:49.384Z,11.30
2022-12-23T10:14:59.008Z,11.20
2022-12-23T10:20:15.083Z,11.20
2022-12-23T10:25:41.446Z,11.20
2022-12-23T10:31:16.811Z,11.10
2022-12-23T10:49:13.667Z,11.10
2022-12-23T10:54:33.938Z,11.20
2022-12-23T11:00:03.186Z,11.30
2022-12-23T11:05:14.755Z,11.40
2022-12-23T11:10:19.440Z,11.50
2022-12-23T11:15:28.186Z,11.70
2022-12-23T11:20:32.630Z,11.80
2022-12-23T11:25:38.085Z,11.90
2022-12-23T11:30:56.344Z,11.90
2022-12-23T11:36:06.933Z,11.90
2022-12-23T11:41:09.071Z,11.80
2022-12-23T11:46:18.319Z,11.70
2022-12-23T11:51:26.770Z,11.60
2022-12-23T11:56:34.512Z,11.60
2022-12-23T12:01:37.320Z,11.60
2022-12-23T12:06:49.836Z,11.50
2022-12-23T12:12:04.245Z,11.50
2022-12-23T12:17:16.745Z,11.50
2022-12-23T12:22:29.652Z,11.40
2022-12-23T12:27:37.506Z,11.30
2022-12-23T12:32:50.952Z,11.20
2022-12-23T12:37:59.620Z,11.20
2022-12-23T12:43:11.802Z,11.20
2022-12-23T12:48:36.375Z,11.10
2022-12-23T12:53:52.867Z,11.00
2022-12-23T12:58:54.971Z,11.00
2022-12-23T13:04:29.403Z,11.00
2022-12-23T13:09:40.357Z,10.90
2022-12-23T13:14:53.705Z,10.90
2022-12-23T13:20:03.437Z,10.90
2022-12-23T13:25:14.768Z,10.90
2022-12-23T13:30:18.531Z,10.90
2022-12-23T13:35:34.965Z,10.90
2022-12-23T13:40:46.880Z,10.90
2022-12-23T13:45:51.611Z,10.90
2022-12-23T13:50:59.818Z,10.80
2022-12-23T13:56:13.991Z,10.80
2022-12-23T14:01:34.623Z,10.80
2022-12-23T14:06:44.875Z,10.70
2022-12-23T14:11:50.066Z,10.70
2022-12-23T14:17:02.941Z,10.50
2022-12-23T14:22:29.637Z,10.50
2022-12-23T14:27:46.814Z,10.40
2022-12-23T14:32:50.151Z,10.40
2022-12-23T14:38:09.367Z,10.30
2022-12-23T14:43:31.083Z,10.30
2022-12-23T14:49:15.905Z,10.20
2022-12-23T14:54:36.708Z,10.10
2022-12-23T14:59:48.047Z,10.10
2022-12-23T15:04:54.779Z,10.10
2022-12-23T15:10:01.243Z,10.10
2022-12-23T15:15:14.495Z,10.10
2022-12-23T15:20:20.658Z,10.00
2022-12-23T15:25:24.756Z,9.90
2022-12-23T15:30:30.342Z,9.80
2022-12-23T15:35:35.940Z,9.80
2022-12-23T15:40:39.312Z,9.70
2022-12-23T15:45:43.324Z,9.70
2022-12-23T15:50:45.476Z,9.70
2022-12-23T15:55:48.958Z,9.70
2022-12-23T16:00:56.745Z,9.70
2022-12-23T16:06:11.163Z,9.70
2022-12-23T16:11:16.350Z,9.70
2022-12-23T16:16:30.696Z,9.70
2022-12-23T16:21:35.660Z,9.70
2022-12-23T16:26:42.483Z,9.70
2022-12-23T16:31:51.239Z,9.60
2022-12-23T16:36:58.061Z,9.60
2022-12-23T16:42:00.144Z,9.60
2022-12-23T16:47:08.688Z,9.60
2022-12-23T16:52:13.348Z,9.50
2022-12-23T16:57:15.444Z,9.50
2022-12-23T17:02:22.977Z,9.40
2022-12-23T17:07:26.546Z,9.30
2022-12-23T17:12:28.740Z,9.30
2022-12-23T17:17:33.049Z,9.20
2022-12-23T17:22:36.718Z,9.20
2022-12-23T17:27:39.870Z,9.20
2022-12-23T17:32:46.474Z,9.20
2022-12-23T17:37:50.107Z,9.20
2022-12-23T17:42:52.214Z,9.10
2022-12-23T17:47:56.562Z,9.20
2022-12-23T17:52:58.753Z,9.20
2022-12-23T17:58:00.869Z,9.20
2022-12-23T18:03:05.086Z,9.20
2022-12-23T18:08:07.383Z,9.20
2022-12-23T18:13:18.160Z,9.20
2022-12-23T18:18:30.153Z,9.30
2022-12-23T18:23:38.488Z,9.30
2022-12-23T18:28:42.140Z,9.20
2022-12-23T18:33:46.321Z,9.30
2022-12-23T18:38:48.492Z,9.30
2022-12-23T18:43:52.004Z,9.30
2022-12-23T18:48:55.504Z,9.30
2022-12-23T18:53:58.332Z,9.20
2022-12-23T18:59:00.481Z,9.20
2022-12-23T19:04:04.073Z,9.20
2022-12-23T19:09:07.189Z,9.10
2022-12-23T19:14:11.335Z,9.10
2022-12-23T19:19:15.219Z,9.10
2022-12-23T19:24:17.811Z,9.10
2022-12-23T19:29:20.146Z,9.10
2022-12-23T19:34:24.113Z,9.10
2022-12-23T19:39:26.535Z,9.10
2022-12-23T19:44:29.010Z,9.00
2022-12-23T19:49:32.746Z,9.00
2022-12-23T19:54:35.115Z,9.00
2022-12-23T19:59:37.565Z,9.00
2022-12-23T20:04:41.539Z,9.00
2022-12-23T20:09:44.309Z,9.00
2022-12-23T20:14:46.571Z,9.00
2022-12-23T20:19:50.151Z,9.00
2022-12-23T20:24:52.627Z,9.10
2022-12-23T20:29:54.764Z,9.10
2022-12-23T20:34:58.397Z,9.10
2022-12-23T20:40:00.816Z,9.00
2022-12-23T20:45:03.107Z,9.10
2022-12-23T20:50:08.115Z,9.00
2022-12-23T20:55:10.328Z,9.00
2022-12-23T21:00:13.809Z,9.00
2022-12-23T21:05:17.672Z,9.00
2022-12-23T21:10:19.870Z,9.00
2022-12-23T21:15:21.991Z,9.00
2022-12-23T21:20:25.756Z,9.00
2022-12-23T21:25:27.961Z,9.00
2022-12-23T21:30:30.125Z,9.00
2022-12-23T21:35:35.623Z,9.00
2022-12-23T21:40:37.683Z,8.90
2022-12-23T21:45:39.823Z,8.90
2022-12-23T21:50:43.328Z,8.90
2022-12-23T21:55:45.453Z,8.90
2022-12-23T22:00:47.599Z,8.90
2022-12-23T22:05:51.270Z,8.80
2022-12-23T22:10:53.441Z,8.80
2022-12-23T22:15:55.654Z,8.80
2022-12-23T22:21:03.934Z,8.70
2022-12-23T22:26:07.281Z,8.70
2022-12-23T22:31:17.475Z,8.60
2022-12-23T22:36:21.060Z,8.60
2022-12-23T22:41:24.788Z,8.60
2022-12-23T22:46:27.286Z,8.60
2022-12-23T22:51:32.048Z,8.50
2022-12-23T22:56:34.675Z,8.60
2022-12-23T23:01:37.152Z,8.60
2022-12-23T23:06:42.120Z,8.60
2022-12-23T23:11:45.623Z,8.60
2022-12-23T23:16:47.916Z,8.60
2022-12-23T23:21:52.062Z,8.60
2022-12-23T23:26:54.211Z,8.60
2022-12-23T23:31:56.364Z,8.60
2022-12-23T23:37:00.861Z,8.60
2022-12-23T23:42:03.007Z,8.60
2022-12-23T23:47:05.250Z,8.60
2022-12-23T23:52:08.852Z,8.50
2022-12-23T23:57:11.206Z,8.50
